createdAt,value
2022-10-17T00:00:22.374Z,6.63
2022-10-17T00:01:19.092Z,6.58
2022-10-17T00:02:15.678Z,6.50
2022-10-17T00:03:12.443Z,6.65
2022-10-17T00:04:08.991Z,5.99
2022-10-17T00:05:05.839Z,6.34
2022-10-17T00:06:10.007Z,6.37
2022-10-17T00:07:06.583Z,6.20
2022-10-17T00:08:03.196Z,6.20
2022-10-17T00:08:59.793Z,6.22
2022-10-17T00:09:56.433Z,6.20
2022-10-17T00:11:06.252Z,6.15
2022-10-17T00:12:03.344Z,6.07
2022-10-17T00:12:59.925Z,6.09
2022-10-17T00:13:56.638Z,6.13
2022-10-17T00:14:53.224Z,6.13
2022-10-17T00:15:49.827Z,6.13
2022-10-17T00:16:46.448Z,5.97
2022-10-17T00:17:43.130Z,6.07
2022-10-17T00:18:39.745Z,6.19
2022-10-17T00:19:36.306Z,6.12
2022-10-17T00:20:35.446Z,6.08
2022-10-17T00:21:32.349Z,6.02
2022-10-17T00:22:28.937Z,5.89
2022-10-17T00:23:27.550Z,6.00
2022-10-17T00:24:24.146Z,6.00
2022-10-17T00:25:20.738Z,6.10
2022-10-17T00:26:18.120Z,5.86
2022-10-17T00:27:14.677Z,6.05
2022-10-17T00:28:13.053Z,6.11
2022-10-17T00:29:09.715Z,5.79
2022-10-17T00:30:09.726Z,5.96
2022-10-17T00:31:07.190Z,5.79
2022-10-17T00:32:03.845Z,5.88
2022-10-17T00:33:00.429Z,5.75
2022-10-17T00:33:56.997Z,5.57
2022-10-17T00:34:53.551Z,5.71
2022-10-17T00:35:50.130Z,5.26
2022-10-17T00:36:46.717Z,5.78
2022-10-17T00:37:43.299Z,5.77
2022-10-17T00:38:42.019Z,5.82
2022-10-17T00:39:38.918Z,5.81
2022-10-17T00:40:35.493Z,5.75
2022-10-17T00:41:33.936Z,5.71
2022-10-17T00:42:30.752Z,5.64
2022-10-17T00:43:29.642Z,5.74
2022-10-17T00:44:32.078Z,5.74
2022-10-17T00:45:29.889Z,5.79
2022-10-17T00:46:36.435Z,5.69
2022-10-17T00:47:35.323Z,5.66
2022-10-17T00:48:31.907Z,5.68
2022-10-17T00:49:31.193Z,5.81
2022-10-17T00:50:28.526Z,5.69
2022-10-17T00:51:34.265Z,5.56
2022-10-17T00:52:31.721Z,5.60
2022-10-17T00:53:28.823Z,5.47
2022-10-17T00:54:32.869Z,5.50
2022-10-17T00:55:33.622Z,5.78
2022-10-17T00:56:30.943Z,4.99
2022-10-17T00:57:29.839Z,5.31
2022-10-17T00:58:26.517Z,5.44
2022-10-17T00:59:24.676Z,5.38
2022-10-17T01:00:22.113Z,5.34
2022-10-17T01:01:18.891Z,5.26
2022-10-17T01:02:18.475Z,5.48
2022-10-17T01:03:15.185Z,5.44
2022-10-17T01:04:11.834Z,5.54
2022-10-17T01:05:09.190Z,5.64
2022-10-17T01:06:05.820Z,5.53
2022-10-17T01:07:02.444Z,5.32
2022-10-17T01:07:59.206Z,5.59
2022-10-17T01:08:56.089Z,5.43
2022-10-17T01:09:52.799Z,5.34
2022-10-17T01:11:34.517Z,5.39
2022-10-17T01:13:05.028Z,5.58
2022-10-17T01:14:08.849Z,5.21
2022-10-17T01:15:14.342Z,5.29
2022-10-17T01:16:17.025Z,5.22
2022-10-17T01:17:31.949Z,5.23
2022-10-17T01:18:40.554Z,5.19
2022-10-17T01:20:11.123Z,5.17
2022-10-17T01:21:23.839Z,5.27
2022-10-17T01:22:28.518Z,5.26
2022-10-17T01:23:41.005Z,5.13
2022-10-17T01:24:40.106Z,5.10
2022-10-17T01:25:56.001Z,5.10
2022-10-17T01:27:04.580Z,5.30
2022-10-17T01:28:18.814Z,5.14
2022-10-17T01:29:52.933Z,5.51
2022-10-17T01:30:58.606Z,5.40
2022-10-17T01:31:59.299Z,5.50
2022-10-17T01:33:02.201Z,5.62
2022-10-17T01:34:17.118Z,5.59
2022-10-17T01:35:19.216Z,5.61
2022-10-17T01:36:58.486Z,5.51
2022-10-17T01:38:07.249Z,5.65
2022-10-17T01:39:20.748Z,6.07
2022-10-17T01:40:30.922Z,6.27
2022-10-17T01:41:44.423Z,6.55
2022-10-17T01:43:09.928Z,5.86
2022-10-17T01:44:18.603Z,5.95
2022-10-17T01:45:28.445Z,5.64
2022-10-17T01:46:36.738Z,5.61
2022-10-17T01:47:34.625Z,5.71
2022-10-17T01:48:38.053Z,5.63
2022-10-17T01:49:37.796Z,5.46
2022-10-17T01:50:38.554Z,5.42
2022-10-17T01:51:42.782Z,5.43
2022-10-17T01:53:04.118Z,5.28
2022-10-17T01:54:08.445Z,5.30
2022-10-17T01:55:11.330Z,5.48
2022-10-17T01:56:10.155Z,5.13
2022-10-17T01:57:13.200Z,5.13
2022-10-17T01:58:12.384Z,5.20
2022-10-17T01:59:22.388Z,5.41
2022-10-17T02:00:22.779Z,4.76
2022-10-17T02:01:21.360Z,5.25
2022-10-17T02:02:20.410Z,5.10
2022-10-17T02:03:20.680Z,5.25
2022-10-17T02:04:17.609Z,5.86
2022-10-17T02:05:16.187Z,5.46
2022-10-17T02:06:12.758Z,5.15
2022-10-17T02:07:11.405Z,5.12
2022-10-17T02:08:08.737Z,5.74
2022-10-17T02:09:36.002Z,5.66
2022-10-17T02:10:47.338Z,5.30
2022-10-17T02:11:50.798Z,5.32
2022-10-17T02:13:02.124Z,5.20
2022-10-17T02:14:18.801Z,5.07
2022-10-17T02:15:28.444Z,5.36
2022-10-17T02:16:51.858Z,5.18
2022-10-17T02:18:09.644Z,5.05
2022-10-17T02:19:15.326Z,5.27
2022-10-17T02:20:23.560Z,5.15
2022-10-17T02:21:40.562Z,5.13
2022-10-17T02:22:47.711Z,5.11
2022-10-17T02:24:00.454Z,4.88
2022-10-17T02:25:14.815Z,4.55
2022-10-17T02:26:27.001Z,4.86
2022-10-17T02:27:50.722Z,4.72
2022-10-17T02:29:05.899Z,4.63
2022-10-17T02:30:10.741Z,4.62
2022-10-17T02:31:15.702Z,4.64
2022-10-17T02:32:19.494Z,4.47
2022-10-17T02:33:27.173Z,4.27
2022-10-17T02:34:31.904Z,4.43
2022-10-17T02:35:32.896Z,4.62
2022-10-17T02:36:34.638Z,4.21
2022-10-17T02:37:32.359Z,4.17
2022-10-17T02:38:30.626Z,4.38
2022-10-17T02:39:28.947Z,4.71
2022-10-17T02:40:29.256Z,4.81
2022-10-17T02:41:26.511Z,4.97
2022-10-17T02:42:25.018Z,4.91
2022-10-17T02:43:22.850Z,4.65
2022-10-17T02:44:21.142Z,4.51
2022-10-17T02:45:18.704Z,4.79
2022-10-17T02:46:21.192Z,5.05
2022-10-17T02:47:29.168Z,4.87
2022-10-17T02:48:34.625Z,4.62
2022-10-17T02:49:41.432Z,4.72
2022-10-17T02:50:52.292Z,4.80
2022-10-17T02:52:12.544Z,4.79
2022-10-17T02:53:14.202Z,4.69
2022-10-17T02:54:37.295Z,4.62
2022-10-17T02:55:40.940Z,4.54
2022-10-17T02:56:43.645Z,4.44
2022-10-17T02:57:46.084Z,4.52
2022-10-17T02:58:46.256Z,4.72
2022-10-17T02:59:45.682Z,4.57
2022-10-17T03:00:43.691Z,4.52
2022-10-17T03:01:40.346Z,4.58
2022-10-17T03:02:46.115Z,4.57
2022-10-17T03:03:42.694Z,4.46
2022-10-17T03:04:43.901Z,4.49
2022-10-17T03:05:40.524Z,4.62
2022-10-17T03:06:37.226Z,4.31
2022-10-17T03:07:33.813Z,4.55
2022-10-17T03:08:30.531Z,4.54
2022-10-17T03:09:27.718Z,4.94
2022-10-17T03:10:24.350Z,4.84
2022-10-17T03:11:20.948Z,4.73
2022-10-17T03:12:17.565Z,4.45
2022-10-17T03:13:15.237Z,4.50
2022-10-17T03:14:11.797Z,4.65
2022-10-17T03:15:09.661Z,4.70
2022-10-17T03:16:06.436Z,4.42
2022-10-17T03:17:03.133Z,4.29
2022-10-17T03:17:59.693Z,4.20
2022-10-17T03:18:56.357Z,4.78
2022-10-17T03:19:52.943Z,4.61
2022-10-17T03:20:49.632Z,4.31
2022-10-17T03:21:46.233Z,4.05
2022-10-17T03:22:42.799Z,4.44
2022-10-17T03:23:39.405Z,4.21
2022-10-17T03:24:36.009Z,3.67
2022-10-17T03:25:32.661Z,4.11
2022-10-17T03:26:29.727Z,4.28
2022-10-17T03:27:26.570Z,4.28
2022-10-17T03:28:23.514Z,4.26
2022-10-17T03:29:20.172Z,4.26
2022-10-17T03:30:16.962Z,4.20
2022-10-17T03:31:17.233Z,4.25
2022-10-17T03:32:14.011Z,4.26
2022-10-17T03:33:10.698Z,4.16
2022-10-17T03:34:07.300Z,4.46
2022-10-17T03:35:04.539Z,4.40
2022-10-17T03:36:05.657Z,4.24
2022-10-17T03:37:02.387Z,4.23
2022-10-17T03:37:58.932Z,4.16
2022-10-17T03:38:55.774Z,4.24
2022-10-17T03:39:52.391Z,4.24
2022-10-17T03:40:56.204Z,3.92
2022-10-17T03:41:52.780Z,3.95
2022-10-17T03:42:49.331Z,4.04
2022-10-17T03:43:45.964Z,3.95
2022-10-17T03:44:42.573Z,4.00
2022-10-17T03:45:39.156Z,4.44
2022-10-17T03:46:35.754Z,4.64
2022-10-17T03:47:32.675Z,4.49
2022-10-17T03:48:30.860Z,4.45
2022-10-17T03:49:27.445Z,4.75
2022-10-17T03:50:23.988Z,4.37
2022-10-17T03:51:20.603Z,4.35
2022-10-17T03:52:17.274Z,4.32
2022-10-17T03:53:13.852Z,4.39
2022-10-17T03:54:10.449Z,4.30
2022-10-17T03:55:07.420Z,4.14
2022-10-17T03:56:16.055Z,4.34
2022-10-17T03:57:12.698Z,3.91
2022-10-17T03:58:09.272Z,4.22
2022-10-17T03:59:05.883Z,4.14
2022-10-17T04:00:03.164Z,3.89
2022-10-17T04:01:07.788Z,4.03
2022-10-17T04:02:04.427Z,4.28
2022-10-17T04:03:00.968Z,4.15
2022-10-17T04:03:58.050Z,3.64
2022-10-17T04:04:54.597Z,3.88
2022-10-17T04:05:51.173Z,3.69
2022-10-17T04:06:47.718Z,3.95
2022-10-17T04:07:44.274Z,3.87
2022-10-17T04:08:42.633Z,3.91
2022-10-17T04:09:39.194Z,3.88
2022-10-17T04:10:35.812Z,3.85
2022-10-17T04:11:32.566Z,3.87
2022-10-17T04:12:29.298Z,3.81
2022-10-17T04:13:26.083Z,3.53
2022-10-17T04:14:22.666Z,3.81
2022-10-17T04:15:19.385Z,3.85
2022-10-17T04:16:17.373Z,3.67
2022-10-17T04:17:13.932Z,3.89
2022-10-17T04:18:10.557Z,3.95
2022-10-17T04:19:07.106Z,3.81
2022-10-17T04:20:04.393Z,3.95
2022-10-17T04:21:05.608Z,3.64
2022-10-17T04:22:04.060Z,3.63
2022-10-17T04:23:00.645Z,3.73
2022-10-17T04:23:59.883Z,3.73
2022-10-17T04:24:56.465Z,3.16
2022-10-17T04:25:57.268Z,3.72
2022-10-17T04:26:54.769Z,4.12
2022-10-17T04:27:51.357Z,3.90
2022-10-17T04:28:48.146Z,3.78
2022-10-17T04:29:44.835Z,3.75
2022-10-17T04:30:43.670Z,3.70
2022-10-17T04:31:42.164Z,3.80
2022-10-17T04:32:39.205Z,3.79
2022-10-17T04:33:35.793Z,3.90
2022-10-17T04:34:32.461Z,3.64
2022-10-17T04:35:29.100Z,3.71
2022-10-17T04:36:25.715Z,3.83
2022-10-17T04:37:22.338Z,3.84
2022-10-17T04:38:22.790Z,3.85
2022-10-17T04:39:22.897Z,3.92
2022-10-17T04:40:19.669Z,3.84
2022-10-17T04:41:18.435Z,3.55
2022-10-17T04:42:15.066Z,3.83
2022-10-17T04:43:11.690Z,4.05
2022-10-17T04:44:08.417Z,3.88
2022-10-17T04:45:05.708Z,3.77
2022-10-17T04:46:04.661Z,3.94
2022-10-17T04:47:01.454Z,3.96
2022-10-17T04:47:58.050Z,3.77
2022-10-17T04:48:54.970Z,3.66
2022-10-17T04:49:51.564Z,3.89
2022-10-17T04:51:00.318Z,3.77
2022-10-17T04:51:56.927Z,3.79
2022-10-17T04:52:53.467Z,3.91
2022-10-17T04:53:50.196Z,3.82
2022-10-17T04:54:46.762Z,3.73
2022-10-17T04:55:43.404Z,3.71
2022-10-17T04:56:40.056Z,4.00
2022-10-17T04:57:37.473Z,3.64
2022-10-17T04:58:34.121Z,3.77
2022-10-17T04:59:31.334Z,3.97
2022-10-17T05:00:28.059Z,4.11
2022-10-17T05:01:24.779Z,3.69
2022-10-17T05:02:21.402Z,3.76
2022-10-17T05:03:20.029Z,3.91
2022-10-17T05:04:18.928Z,4.06
2022-10-17T05:05:17.643Z,4.12
2022-10-17T05:06:17.845Z,3.96
2022-10-17T05:07:14.414Z,3.98
2022-10-17T05:08:11.656Z,3.55
2022-10-17T05:09:08.247Z,4.29
2022-10-17T05:10:05.101Z,4.29
2022-10-17T05:11:02.562Z,4.57
2022-10-17T05:11:59.134Z,4.49
2022-10-17T05:12:55.809Z,4.38
2022-10-17T05:13:54.441Z,4.58
2022-10-17T05:14:51.015Z,4.42
2022-10-17T05:15:47.680Z,4.87
2022-10-17T05:16:44.453Z,4.43
2022-10-17T05:17:41.484Z,4.68
2022-10-17T05:18:38.077Z,5.11
2022-10-17T05:19:34.679Z,5.44
2022-10-17T05:20:31.649Z,5.61
2022-10-17T05:21:30.308Z,5.70
2022-10-17T05:22:27.187Z,5.96
2022-10-17T05:23:24.038Z,5.77
2022-10-17T05:24:20.721Z,5.57
2022-10-17T05:25:17.324Z,5.47
2022-10-17T05:26:14.070Z,5.43
2022-10-17T05:27:10.650Z,5.43
2022-10-17T05:28:07.256Z,5.37
2022-10-17T05:29:04.448Z,5.40
2022-10-17T05:30:01.081Z,5.60
2022-10-17T05:30:57.646Z,5.54
2022-10-17T05:31:54.264Z,5.61
2022-10-17T05:32:55.170Z,5.90
2022-10-17T05:33:51.924Z,5.81
2022-10-17T05:34:48.555Z,5.77
2022-10-17T05:35:45.146Z,5.70
2022-10-17T05:36:41.848Z,5.62
2022-10-17T05:37:38.551Z,5.68
2022-10-17T05:38:35.572Z,5.80
2022-10-17T05:39:32.118Z,6.00
2022-10-17T05:40:28.705Z,5.91
2022-10-17T05:41:25.340Z,5.80
2022-10-17T05:42:22.396Z,5.89
2022-10-17T05:43:19.032Z,5.92
2022-10-17T05:44:15.819Z,5.80
2022-10-17T05:45:12.641Z,5.87
2022-10-17T05:46:09.888Z,5.92
2022-10-17T05:47:06.456Z,5.91
2022-10-17T05:48:03.423Z,5.86
2022-10-17T05:48:59.932Z,5.92
2022-10-17T05:49:56.560Z,5.85
2022-10-17T05:51:01.414Z,5.95
2022-10-17T05:51:58.082Z,5.86
2022-10-17T05:52:55.334Z,6.14
2022-10-17T05:53:51.892Z,6.15
2022-10-17T05:54:48.496Z,6.18
2022-10-17T05:55:45.160Z,6.38
2022-10-17T05:56:41.759Z,6.25
2022-10-17T05:57:38.553Z,6.33
2022-10-17T05:58:53.147Z,6.37
2022-10-17T05:59:50.779Z,6.40
2022-10-17T06:00:47.389Z,6.63
2022-10-17T06:01:44.080Z,6.76
2022-10-17T06:02:40.845Z,6.91
2022-10-17T06:03:37.448Z,6.60
2022-10-17T06:04:34.015Z,6.84
2022-10-17T06:05:30.686Z,6.89
2022-10-17T06:06:27.231Z,6.88
2022-10-17T06:07:23.858Z,6.89
2022-10-17T06:08:20.953Z,6.93
2022-10-17T06:09:17.933Z,6.95
2022-10-17T06:10:16.525Z,7.04
2022-10-17T06:11:13.845Z,7.07
2022-10-17T06:12:10.426Z,7.24
2022-10-17T06:13:07.101Z,7.32
2022-10-17T06:14:04.051Z,7.53
2022-10-17T06:15:00.837Z,7.24
2022-10-17T06:15:57.657Z,7.41
2022-10-17T06:16:54.222Z,7.43
2022-10-17T06:17:50.849Z,7.44
2022-10-17T06:19:49.126Z,7.66
2022-10-17T06:20:46.223Z,7.34
2022-10-17T06:21:42.855Z,7.75
2022-10-17T06:22:39.399Z,7.71
2022-10-17T06:23:35.970Z,7.54
2022-10-17T06:24:32.620Z,7.88
2022-10-17T06:25:31.952Z,7.78
2022-10-17T06:26:28.570Z,7.88
2022-10-17T06:27:25.124Z,7.96
2022-10-17T06:28:21.849Z,7.82
2022-10-17T06:29:18.609Z,7.68
2022-10-17T06:30:15.262Z,7.89
2022-10-17T06:31:13.850Z,8.10
2022-10-17T06:32:12.746Z,8.14
2022-10-17T06:33:11.719Z,8.17
2022-10-17T06:34:08.589Z,8.06
2022-10-17T06:35:05.627Z,8.16
2022-10-17T06:36:02.561Z,8.04
2022-10-17T06:36:59.140Z,8.21
2022-10-17T06:37:55.696Z,8.19
2022-10-17T06:38:52.328Z,8.30
2022-10-17T06:39:49.090Z,8.10
2022-10-17T06:40:45.646Z,8.26
2022-10-17T06:41:43.860Z,8.26
2022-10-17T06:42:41.590Z,8.49
2022-10-17T06:43:38.522Z,8.55
2022-10-17T06:44:35.118Z,8.40
2022-10-17T06:45:31.699Z,8.49
2022-10-17T06:46:29.843Z,8.88
2022-10-17T06:47:26.477Z,8.73
2022-10-17T06:48:23.064Z,8.72
2022-10-17T06:49:19.647Z,8.60
2022-10-17T06:50:16.435Z,8.41
2022-10-17T06:51:13.373Z,8.71
2022-10-17T06:52:10.796Z,9.05
2022-10-17T06:53:07.341Z,8.99
2022-10-17T06:54:04.609Z,8.53
2022-10-17T06:55:01.196Z,8.95
2022-10-17T06:56:03.361Z,9.00
2022-10-17T06:56:59.995Z,9.13
2022-10-17T06:57:56.745Z,9.21
2022-10-17T06:58:53.914Z,9.27
2022-10-17T06:59:50.451Z,9.40
2022-10-17T07:00:47.133Z,9.40
2022-10-17T07:01:46.270Z,9.45
2022-10-17T07:02:44.317Z,9.42
2022-10-17T07:03:41.298Z,9.46
2022-10-17T07:04:38.383Z,9.56
2022-10-17T07:05:35.889Z,9.71
2022-10-17T07:06:32.497Z,9.49
2022-10-17T07:07:32.695Z,9.54
2022-10-17T07:08:30.348Z,9.45
2022-10-17T07:09:27.881Z,9.44
2022-10-17T07:10:28.196Z,9.49
2022-10-17T07:11:25.901Z,9.71
2022-10-17T07:12:23.377Z,10.06
2022-10-17T07:13:20.413Z,10.19
2022-10-17T07:14:16.991Z,10.24
2022-10-17T07:15:13.624Z,9.91
2022-10-17T07:16:11.203Z,9.95
2022-10-17T07:17:07.826Z,10.01
2022-10-17T07:18:05.200Z,9.63
2022-10-17T07:19:02.142Z,9.35
2022-10-17T07:19:58.798Z,10.01
2022-10-17T07:20:55.895Z,9.90
2022-10-17T07:21:54.264Z,9.79
2022-10-17T07:22:51.057Z,10.09
2022-10-17T07:23:48.174Z,10.15
2022-10-17T07:24:45.223Z,10.16
2022-10-17T07:25:41.861Z,10.10
2022-10-17T07:26:39.310Z,9.99
2022-10-17T07:27:36.242Z,10.07
2022-10-17T07:28:36.523Z,10.24
2022-10-17T07:29:35.621Z,10.41
2022-10-17T07:30:37.756Z,10.37
2022-10-17T07:31:38.224Z,10.19
2022-10-17T07:32:34.863Z,10.28
2022-10-17T07:33:31.489Z,10.38
2022-10-17T07:34:30.820Z,10.39
2022-10-17T07:35:27.466Z,10.22
2022-10-17T07:36:24.193Z,10.29
2022-10-17T07:37:20.835Z,10.15
2022-10-17T07:38:19.031Z,10.51
2022-10-17T07:39:16.049Z,10.59
2022-10-17T07:40:12.734Z,10.26
2022-10-17T07:41:11.038Z,10.60
2022-10-17T07:42:07.883Z,10.73
2022-10-17T07:43:05.002Z,10.96
2022-10-17T07:44:01.702Z,11.28
2022-10-17T07:44:59.143Z,11.53
2022-10-17T07:45:55.828Z,11.47
2022-10-17T07:46:52.480Z,11.55
2022-10-17T07:47:49.413Z,11.28
2022-10-17T07:48:46.171Z,11.43
2022-10-17T07:49:44.194Z,11.67
2022-10-17T07:50:40.785Z,11.79
2022-10-17T07:51:37.516Z,11.87
2022-10-17T07:52:34.495Z,11.93
2022-10-17T07:53:31.270Z,12.20
2022-10-17T07:54:27.888Z,12.39
2022-10-17T07:55:24.689Z,12.02
2022-10-17T07:56:24.659Z,12.39
2022-10-17T07:57:21.328Z,12.28
2022-10-17T07:58:20.113Z,11.79
2022-10-17T07:59:18.486Z,11.86
2022-10-17T08:00:15.272Z,11.83
2022-10-17T08:01:15.599Z,11.81
2022-10-17T08:02:21.702Z,11.82
2022-10-17T08:03:18.332Z,12.22
2022-10-17T08:04:16.899Z,11.70
2022-10-17T08:05:13.572Z,11.67
2022-10-17T08:06:10.226Z,11.91
2022-10-17T08:07:19.703Z,12.11
2022-10-17T08:08:18.625Z,12.24
2022-10-17T08:09:15.395Z,11.78
2022-10-17T08:10:14.036Z,11.89
2022-10-17T08:11:13.314Z,11.87
2022-10-17T08:12:10.224Z,12.06
2022-10-17T08:13:06.859Z,12.28
2022-10-17T08:14:03.580Z,12.21
2022-10-17T08:15:04.164Z,12.36
2022-10-17T08:16:02.276Z,11.80
2022-10-17T08:16:58.908Z,12.44
2022-10-17T08:17:55.765Z,12.65
2022-10-17T08:18:52.438Z,12.43
2022-10-17T08:19:49.032Z,12.52
2022-10-17T08:20:45.625Z,12.57
2022-10-17T08:21:43.709Z,12.37
2022-10-17T08:22:40.319Z,12.36
2022-10-17T08:23:37.532Z,12.08
2022-10-17T08:24:34.469Z,12.21
2022-10-17T08:25:31.081Z,12.50
2022-10-17T08:26:27.686Z,13.05
2022-10-17T08:27:25.496Z,13.12
2022-10-17T08:28:22.142Z,12.91
2022-10-17T08:29:19.879Z,12.82
2022-10-17T08:30:17.013Z,13.07
2022-10-17T08:31:18.997Z,13.17
2022-10-17T08:32:15.672Z,12.47
2022-10-17T08:33:12.424Z,12.97
2022-10-17T08:34:09.025Z,12.94
2022-10-17T08:35:07.525Z,13.09
2022-10-17T08:36:06.451Z,13.24
2022-10-17T08:37:03.875Z,13.59
2022-10-17T08:38:03.247Z,13.72
2022-10-17T08:38:59.848Z,13.86
2022-10-17T08:39:56.550Z,13.64
2022-10-17T08:40:54.288Z,13.84
2022-10-17T08:42:05.876Z,14.25
2022-10-17T08:43:08.593Z,14.15
2022-10-17T08:44:20.142Z,14.58
2022-10-17T08:45:26.159Z,14.07
2022-10-17T08:46:25.081Z,14.56
2022-10-17T08:47:34.618Z,15.34
2022-10-17T08:48:43.990Z,15.34
2022-10-17T08:49:52.558Z,14.96
2022-10-17T08:51:13.803Z,15.14
2022-10-17T08:52:42.910Z,15.40
2022-10-17T08:53:58.213Z,15.38
2022-10-17T08:54:54.965Z,15.40
2022-10-17T08:55:54.588Z,14.01
2022-10-17T08:56:54.945Z,14.17
2022-10-17T08:57:51.615Z,14.58
2022-10-17T08:58:48.418Z,14.37
2022-10-17T08:59:50.297Z,14.59
2022-10-17T09:00:56.266Z,15.20
2022-10-17T09:02:13.628Z,15.17
2022-10-17T09:03:27.019Z,14.78
2022-10-17T09:04:45.136Z,14.59
2022-10-17T09:05:50.629Z,14.06
2022-10-17T09:07:01.450Z,14.35
2022-10-17T09:08:22.508Z,14.16
2022-10-17T09:09:21.821Z,14.24
2022-10-17T09:10:36.859Z,14.39
2022-10-17T09:11:51.824Z,14.39
2022-10-17T09:13:13.024Z,14.67
2022-10-17T09:14:44.935Z,14.68
2022-10-17T09:16:01.394Z,14.78
2022-10-17T09:17:29.430Z,15.08
2022-10-17T09:18:36.715Z,15.15
2022-10-17T09:19:40.580Z,15.09
2022-10-17T09:20:44.429Z,15.18
2022-10-17T09:21:54.078Z,15.20
2022-10-17T09:23:09.976Z,15.58
2022-10-17T09:24:15.915Z,15.62
2022-10-17T09:25:17.011Z,15.26
2022-10-17T09:26:13.991Z,15.49
2022-10-17T09:27:25.633Z,15.92
2022-10-17T09:28:34.105Z,15.96
2022-10-17T09:29:36.069Z,16.24
2022-10-17T09:30:45.919Z,16.13
2022-10-17T09:31:49.405Z,15.83
2022-10-17T09:32:47.719Z,16.05
2022-10-17T09:33:54.214Z,16.41
2022-10-17T09:34:55.860Z,15.79
2022-10-17T09:35:52.618Z,15.53
2022-10-17T09:36:49.186Z,15.77
2022-10-17T09:37:46.330Z,15.85
2022-10-17T09:38:47.433Z,15.76
2022-10-17T09:39:45.024Z,15.95
2022-10-17T09:40:41.658Z,16.13
2022-10-17T09:41:46.922Z,15.62
2022-10-17T09:42:47.240Z,15.56
2022-10-17T09:43:45.727Z,16.14
2022-10-17T09:44:55.768Z,16.17
2022-10-17T09:46:10.372Z,16.52
2022-10-17T09:47:19.345Z,16.80
2022-10-17T09:48:25.009Z,16.78
2022-10-17T09:49:29.429Z,16.74
2022-10-17T09:50:31.418Z,16.15
2022-10-17T09:51:28.229Z,15.92
2022-10-17T09:52:36.759Z,15.69
2022-10-17T09:53:40.604Z,15.75
2022-10-17T09:54:59.285Z,16.51
2022-10-17T09:56:01.924Z,16.58
2022-10-17T09:57:02.727Z,16.58
2022-10-17T09:58:02.361Z,16.62
2022-10-17T09:58:59.380Z,16.75
2022-10-17T10:00:06.389Z,16.29
2022-10-17T10:01:31.418Z,16.72
2022-10-17T10:02:30.740Z,17.14
2022-10-17T10:03:27.696Z,17.44
2022-10-17T10:04:30.214Z,16.82
2022-10-17T10:05:30.273Z,17.08
2022-10-17T10:06:26.842Z,16.85
2022-10-17T10:07:29.439Z,16.93
2022-10-17T10:08:47.292Z,16.94
2022-10-17T10:09:47.199Z,16.57
2022-10-17T10:10:44.741Z,16.72
2022-10-17T10:11:49.150Z,16.98
2022-10-17T10:13:16.955Z,16.77
2022-10-17T10:14:24.316Z,16.68
2022-10-17T10:15:34.830Z,16.53
2022-10-17T10:16:32.773Z,16.92
2022-10-17T10:17:41.690Z,16.79
2022-10-17T10:18:38.361Z,17.35
2022-10-17T10:19:38.863Z,17.71
2022-10-17T10:20:37.714Z,17.91
2022-10-17T10:21:37.155Z,17.30
2022-10-17T10:22:33.936Z,17.26
2022-10-17T10:23:30.505Z,17.63
2022-10-17T10:24:30.854Z,18.00
2022-10-17T10:25:27.798Z,17.85
2022-10-17T10:26:40.979Z,17.95
2022-10-17T10:27:39.963Z,17.53
2022-10-17T10:28:37.605Z,17.17
2022-10-17T10:29:39.947Z,17.50
2022-10-17T10:30:39.786Z,16.36
2022-10-17T10:31:40.502Z,16.70
2022-10-17T10:32:37.686Z,17.42
2022-10-17T10:33:41.768Z,17.36
2022-10-17T10:35:06.419Z,17.45
2022-10-17T10:36:07.810Z,17.50
2022-10-17T10:37:16.270Z,17.18
2022-10-17T10:38:17.519Z,16.90
2022-10-17T10:39:28.276Z,16.37
2022-10-17T10:40:46.475Z,16.98
2022-10-17T10:41:48.262Z,16.88
2022-10-17T10:42:49.341Z,17.45
2022-10-17T10:43:49.401Z,17.28
2022-10-17T10:44:47.074Z,17.61
2022-10-17T10:45:48.748Z,16.89
2022-10-17T10:46:45.857Z,16.74
2022-10-17T10:47:58.748Z,16.13
2022-10-17T10:49:03.209Z,16.30
2022-10-17T10:50:27.155Z,16.93
2022-10-17T10:51:32.177Z,16.48
2022-10-17T10:52:40.424Z,16.87
2022-10-17T10:53:48.564Z,16.83
2022-10-17T10:54:55.521Z,16.57
2022-10-17T10:55:57.038Z,16.76
2022-10-17T10:56:56.708Z,16.58
2022-10-17T10:57:58.302Z,16.91
2022-10-17T10:59:06.626Z,16.76
2022-10-17T11:00:15.777Z,16.91
2022-10-17T11:01:22.667Z,17.00
2022-10-17T11:02:19.191Z,17.19
2022-10-17T11:03:26.758Z,17.16
2022-10-17T11:04:42.461Z,17.54
2022-10-17T11:05:48.136Z,17.75
2022-10-17T11:06:45.969Z,17.90
2022-10-17T11:07:50.119Z,17.93
2022-10-17T11:08:52.539Z,17.08
2022-10-17T11:10:03.100Z,17.42
2022-10-17T11:11:23.935Z,17.19
2022-10-17T11:12:41.987Z,17.28
2022-10-17T11:13:49.570Z,17.11
2022-10-17T11:15:28.308Z,17.67
2022-10-17T11:16:46.215Z,17.39
2022-10-17T11:17:57.649Z,17.71
2022-10-17T11:19:31.879Z,17.79
2022-10-17T11:20:53.343Z,18.23
2022-10-17T11:22:09.180Z,18.14
2022-10-17T11:23:20.813Z,18.32
2022-10-17T11:24:48.761Z,18.20
2022-10-17T11:25:46.924Z,18.30
2022-10-17T11:26:52.427Z,17.72
2022-10-17T11:27:49.057Z,17.90
2022-10-17T11:28:45.718Z,16.86
2022-10-17T11:29:44.797Z,17.55
2022-10-17T11:31:08.111Z,18.23
2022-10-17T11:32:19.589Z,17.96
2022-10-17T11:33:32.305Z,18.29
2022-10-17T11:34:35.018Z,17.79
2022-10-17T11:35:38.762Z,17.85
2022-10-17T11:36:41.562Z,18.05
2022-10-17T11:37:48.312Z,17.68
2022-10-17T11:38:51.278Z,17.67
2022-10-17T11:39:54.412Z,17.86
2022-10-17T11:40:53.871Z,18.00
2022-10-17T11:41:56.220Z,18.19
2022-10-17T11:42:59.521Z,17.91
2022-10-17T11:44:14.898Z,17.98
2022-10-17T11:45:20.287Z,18.00
2022-10-17T11:46:21.690Z,17.16
2022-10-17T11:47:48.209Z,17.65
2022-10-17T11:49:25.201Z,17.43
2022-10-17T11:52:03.089Z,16.94
2022-10-17T11:53:05.149Z,17.65
2022-10-17T11:54:21.946Z,17.96
2022-10-17T11:55:27.705Z,18.29
2022-10-17T11:56:41.815Z,18.41
2022-10-17T11:57:56.512Z,18.33
2022-10-17T11:59:10.394Z,18.14
2022-10-17T12:00:30.867Z,18.39
2022-10-17T12:01:58.695Z,17.85
2022-10-17T12:03:01.564Z,17.82
2022-10-17T12:04:16.889Z,17.85
2022-10-17T12:05:19.949Z,18.06
2022-10-17T12:06:29.599Z,17.85
2022-10-17T12:07:34.422Z,18.23
2022-10-17T12:08:44.356Z,18.41
2022-10-17T12:09:47.817Z,18.42
2022-10-17T12:11:03.894Z,18.68
2022-10-17T12:12:02.831Z,18.41
2022-10-17T12:13:41.745Z,18.33
2022-10-17T12:14:46.873Z,18.39
2022-10-17T12:15:46.574Z,17.73
2022-10-17T12:16:45.201Z,17.79
2022-10-17T12:17:46.009Z,18.12
2022-10-17T12:18:42.604Z,18.18
2022-10-17T12:19:39.294Z,17.64
2022-10-17T12:20:37.446Z,17.64
2022-10-17T12:22:00.453Z,17.71
2022-10-17T12:23:02.959Z,17.96
2022-10-17T12:23:59.445Z,17.76
2022-10-17T12:25:03.014Z,17.79
2022-10-17T12:26:04.926Z,17.73
2022-10-17T12:27:32.936Z,18.44
2022-10-17T12:28:33.034Z,18.75
2022-10-17T12:29:39.366Z,18.50
2022-10-17T12:30:36.236Z,18.50
2022-10-17T12:31:34.300Z,18.37
2022-10-17T12:32:46.939Z,17.27
2022-10-17T12:33:58.143Z,16.58
2022-10-17T12:34:56.929Z,17.49
2022-10-17T12:36:32.338Z,17.85
2022-10-17T12:37:58.637Z,17.83
2022-10-17T12:39:02.055Z,18.28
2022-10-17T12:39:58.616Z,18.25
2022-10-17T12:40:57.316Z,18.27
2022-10-17T12:41:54.037Z,18.39
2022-10-17T12:42:50.955Z,18.19
2022-10-17T12:44:47.862Z,18.42
2022-10-17T12:45:52.041Z,18.38
2022-10-17T12:47:09.927Z,18.44
2022-10-17T12:48:09.958Z,18.02
2022-10-17T12:49:21.646Z,18.31
2022-10-17T12:51:00.717Z,18.39
2022-10-17T12:52:18.055Z,18.06
2022-10-17T12:53:19.334Z,17.81
2022-10-17T12:54:16.819Z,17.42
2022-10-17T12:55:17.239Z,17.20
2022-10-17T12:56:16.265Z,17.19
2022-10-17T12:57:35.851Z,17.82
2022-10-17T12:58:34.606Z,17.28
2022-10-17T12:59:31.225Z,17.77
2022-10-17T13:00:37.030Z,17.81
2022-10-17T13:01:39.724Z,17.53
2022-10-17T13:02:36.676Z,17.31
2022-10-17T13:03:40.729Z,17.18
2022-10-17T13:04:37.554Z,17.41
2022-10-17T13:05:37.269Z,17.37
2022-10-17T13:06:37.937Z,17.29
2022-10-17T13:07:36.828Z,17.36
2022-10-17T13:08:37.814Z,17.62
2022-10-17T13:09:40.996Z,17.14
2022-10-17T13:10:43.019Z,17.15
2022-10-17T13:11:40.395Z,17.67
2022-10-17T13:12:41.137Z,17.51
2022-10-17T13:13:57.343Z,17.83
2022-10-17T13:14:55.313Z,17.51
2022-10-17T13:15:54.601Z,17.25
2022-10-17T13:17:00.407Z,17.37
2022-10-17T13:17:59.081Z,17.21
2022-10-17T13:18:56.358Z,17.39
2022-10-17T13:19:54.009Z,17.73
2022-10-17T13:21:25.712Z,17.78
2022-10-17T13:22:26.355Z,17.56
2022-10-17T13:23:30.437Z,17.61
2022-10-17T13:24:38.640Z,17.67
2022-10-17T13:25:38.799Z,17.24
2022-10-17T13:26:36.116Z,17.37
2022-10-17T13:27:34.830Z,16.79
2022-10-17T13:28:33.875Z,16.81
2022-10-17T13:29:33.915Z,17.28
2022-10-17T13:30:35.229Z,17.52
2022-10-17T13:31:35.041Z,17.38
2022-10-17T13:32:37.615Z,17.78
2022-10-17T13:33:39.674Z,17.71